createdAt,value
2019-05-10T01:00:15.359Z,97653.53
2019-05-10T01:03:31.841Z,97649.45
2019-05-10T01:09:23.583Z,97656.56
2019-05-10T01:11:44.087Z,97654.08
2019-05-10T01:11:53.894Z,97660.66
2019-05-10T01:37:50.753Z,97689.86
2019-05-10T02:03:35.941Z,97717.14
2019-05-10T02:09:33.351Z,97727.50
2019-05-10T02:16:04.801Z,97726.14
2019-05-10T02:22:53.886Z,97734.87
2019-05-10T02:32:11.708Z,97737.31
2019-05-10T03:03:17.740Z,97777.38
2019-05-10T03:06:02.525Z,97778.20
2019-05-10T03:21:38.109Z,97788.27
2019-05-10T03:25:24.029Z,97794.00
2019-05-10T03:41:27.670Z,97811.16
2019-05-10T03:54:24.751Z,97827.77
2019-05-10T04:00:25.753Z,97833.22
2019-05-10T04:03:34.058Z,97837.88
2019-05-10T04:16:35.481Z,97840.59
2019-05-10T04:18:54.615Z,97848.20
2019-05-10T04:21:32.456Z,97846.83
2019-05-10T04:24:52.929Z,97854.47
2019-05-10T04:27:32.156Z,97855.83
2019-05-10T04:30:20.968Z,97851.50
2019-05-10T04:32:45.442Z,97847.95
2019-05-10T04:35:24.543Z,97855.59
2019-05-10T04:38:45.027Z,97860.47
2019-05-10T04:41:00.578Z,97863.20
2019-05-10T04:43:11.678Z,97863.20
2019-05-10T04:45:50.053Z,97867.86
2019-05-10T04:48:25.089Z,97879.56
2019-05-10T05:00:38.025Z,97883.39
2019-05-10T05:03:19.559Z,97886.66
2019-05-10T05:09:04.197Z,97899.74
2019-05-10T05:11:09.071Z,97898.10
2019-05-10T05:13:18.457Z,97894.02
2019-05-10T05:19:17.776Z,97898.11
2019-05-10T05:21:43.831Z,97902.48
2019-05-10T05:24:10.900Z,97903.05
2019-05-10T05:26:45.990Z,97906.59
2019-05-10T05:29:15.775Z,97910.41
2019-05-10T05:31:30.940Z,97915.32
2019-05-10T05:33:40.286Z,97916.16
2019-05-10T05:36:02.398Z,97915.63
2019-05-10T05:38:16.624Z,97921.63
2019-05-10T05:40:35.806Z,97921.63
2019-05-10T05:42:43.695Z,97920.28
2019-05-10T05:45:07.227Z,97924.37
2019-05-10T05:47:29.181Z,97926.81
2019-05-10T05:49:42.607Z,97930.91
2019-05-10T05:51:52.480Z,97936.11
2019-05-10T05:54:04.113Z,97930.09
2019-05-10T05:56:14.762Z,97933.92
2019-05-10T05:58:27.572Z,97941.57
2019-05-10T06:00:37.825Z,97939.09
2019-05-10T06:02:46.930Z,97939.10
2019-05-10T06:05:04.399Z,97948.13
2019-05-10T06:07:10.291Z,97948.13
2019-05-10T06:09:16.549Z,97936.70
2019-05-10T06:11:29.762Z,97945.97
2019-05-10T06:13:53.211Z,97953.09
2019-05-10T06:16:06.295Z,97950.91
2019-05-10T06:18:14.542Z,97953.10
2019-05-10T06:20:51.380Z,97957.45
2019-05-10T06:23:06.369Z,97952.82
2019-05-10T06:25:06.488Z,97967.84
2019-05-10T06:27:35.436Z,97967.58
2019-05-10T06:29:53.101Z,97967.84
2019-05-10T06:32:28.222Z,97969.74
2019-05-10T06:34:49.441Z,97961.02
2019-05-10T06:37:14.018Z,97973.05
2019-05-10T06:39:55.293Z,97975.48
2019-05-10T06:42:28.875Z,97968.66
2019-05-10T06:45:16.794Z,97982.84
2019-05-10T06:52:54.473Z,97984.19
2019-05-10T06:55:07.490Z,97988.81
2019-05-10T06:57:34.640Z,97994.03
2019-05-10T06:59:48.110Z,97995.13
2019-05-10T07:02:08.811Z,97995.14
2019-05-10T07:04:35.037Z,97996.55
2019-05-10T07:06:47.522Z,97996.83
2019-05-10T07:08:59.581Z,97993.28
2019-05-10T07:14:27.302Z,97998.73
2019-05-10T07:23:06.026Z,97995.95
2019-05-10T07:23:24.585Z,97997.88
2019-05-10T07:25:50.240Z,97997.56
2019-05-10T07:48:53.751Z,98007.33
2019-05-10T07:51:37.178Z,98010.88
2019-05-10T07:55:00.095Z,98005.31
2019-05-10T08:00:03.664Z,98032.50
2019-05-10T08:08:30.954Z,98022.20
2019-05-10T08:14:32.769Z,98033.73
2019-05-10T08:17:05.908Z,98018.48
2019-05-10T08:18:06.263Z,98031.95
2019-05-10T08:19:44.775Z,98023.02
2019-05-10T08:28:36.091Z,98035.92
2019-05-10T08:31:07.951Z,98029.22
2019-05-10T08:31:22.161Z,98038.50
2019-05-10T08:37:30.390Z,98031.98
2019-05-10T08:43:17.213Z,98029.59
2019-05-10T08:45:38.753Z,98034.02
2019-05-10T08:51:52.167Z,98038.45
2019-05-10T08:59:42.753Z,98039.69
2019-05-10T09:05:28.776Z,98041.68
2019-05-10T09:11:28.688Z,98040.48
2019-05-10T09:14:27.346Z,98045.02
2019-05-10T09:17:23.782Z,98046.49
2019-05-10T09:19:51.825Z,98047.88
2019-05-10T09:22:18.096Z,98055.99
2019-05-10T09:25:14.923Z,98056.17
2019-05-10T09:27:46.813Z,98054.80
2019-05-10T09:33:00.937Z,98052.58
2019-05-10T09:38:22.146Z,98051.52
2019-05-10T09:44:45.827Z,98056.79
2019-05-10T09:47:29.978Z,98057.31
2019-05-10T09:50:47.105Z,98057.95
2019-05-10T09:53:40.971Z,98055.48
2019-05-10T09:56:17.357Z,98059.28
2019-05-10T10:04:47.206Z,98071.96
2019-05-10T10:11:15.746Z,98073.13
2019-05-10T10:18:00.158Z,98063.48
2019-05-10T10:21:18.873Z,98067.44
2019-05-10T10:24:20.257Z,98064.25
2019-05-10T10:27:43.797Z,98066.05
2019-05-10T10:38:31.202Z,98067.70
2019-05-10T10:54:44.618Z,98061.86
2019-05-10T11:04:46.603Z,98063.97
2019-05-10T11:16:15.218Z,98061.34
2019-05-10T11:23:56.526Z,98065.39
2019-05-10T11:26:46.839Z,98076.84
2019-05-10T11:35:19.168Z,98063.11
2019-05-10T11:38:32.560Z,98070.40
2019-05-10T11:41:41.172Z,98059.52
2019-05-10T11:45:00.811Z,98056.05
2019-05-10T11:50:56.829Z,98059.96
2019-05-10T11:54:43.988Z,98067.39
2019-05-10T12:03:58.974Z,98061.20
2019-05-10T12:06:49.513Z,98068.14
2019-05-10T12:13:24.956Z,98060.41
2019-05-10T12:32:05.119Z,98047.45
2019-05-10T12:35:04.288Z,98058.57
2019-05-10T12:54:03.900Z,98062.97
2019-05-10T12:56:44.061Z,98048.45
2019-05-10T13:10:05.785Z,98069.23
2019-05-10T13:19:38.899Z,98082.61
2019-05-10T13:24:52.321Z,98082.73
2019-05-10T13:27:45.637Z,98083.85
2019-05-10T13:30:11.561Z,98081.89
2019-05-10T13:32:44.461Z,98078.85
2019-05-10T13:41:17.751Z,98082.45
2019-05-10T13:44:18.062Z,98089.89
2019-05-10T13:47:29.309Z,98086.38
2019-05-10T13:50:01.719Z,98084.98
2019-05-10T13:52:37.900Z,98080.20
2019-05-10T14:14:34.948Z,98080.55
2019-05-10T14:22:22.988Z,98089.09
2019-05-10T14:25:08.227Z,98082.71
2019-05-10T14:27:36.027Z,98083.72
2019-05-10T14:33:08.590Z,98088.09
2019-05-10T14:35:31.722Z,98076.36
2019-05-10T14:38:01.414Z,98084.09
2019-05-10T14:40:27.508Z,98083.27
2019-05-10T14:42:35.921Z,98085.55
2019-05-10T14:44:53.801Z,98080.77
2019-05-10T14:47:16.770Z,98078.18
2019-05-10T14:49:27.897Z,98076.56
2019-05-10T14:52:11.875Z,98087.63
2019-05-10T14:54:43.901Z,98085.59
2019-05-10T14:57:11.309Z,98082.73
2019-05-10T14:59:17.933Z,98087.03
2019-05-10T15:01:45.428Z,98085.40
2019-05-10T15:04:10.595Z,98089.03
2019-05-10T15:06:36.839Z,98088.55
2019-05-10T15:08:43.630Z,98094.86
2019-05-10T15:14:01.241Z,98098.13
2019-05-10T15:16:25.780Z,98102.45
2019-05-10T15:18:25.196Z,98109.31
2019-05-10T15:20:36.066Z,98107.02
2019-05-10T15:22:53.465Z,98115.18
2019-05-10T15:25:12.650Z,98120.52
2019-05-10T15:28:40.076Z,98123.18
2019-05-10T15:35:02.836Z,98120.48
2019-05-10T15:37:17.842Z,98127.22
2019-05-10T15:46:56.209Z,98120.94
2019-05-10T15:49:54.431Z,98133.13
2019-05-10T15:52:23.662Z,98128.98
2019-05-10T15:55:16.435Z,98134.50
2019-05-10T16:04:30.615Z,98137.14
2019-05-10T16:07:16.306Z,98133.55
2019-05-10T16:09:58.281Z,98130.41
2019-05-10T16:12:19.172Z,98127.84
2019-05-10T16:14:54.442Z,98125.47
2019-05-10T16:17:41.372Z,98126.02
2019-05-10T16:20:37.219Z,98125.20
2019-05-10T16:23:08.678Z,98125.59
2019-05-10T16:25:48.560Z,98135.31
2019-05-10T16:28:41.431Z,98135.31
2019-05-10T16:30:36.362Z,98130.02
2019-05-10T16:33:19.507Z,98138.02
2019-05-10T16:35:49.691Z,98135.61
2019-05-10T16:38:53.564Z,98134.34
2019-05-10T16:41:15.124Z,98136.38
2019-05-10T16:44:09.555Z,98141.60
2019-05-10T16:47:10.409Z,98141.11
2019-05-10T16:49:32.638Z,98141.78
2019-05-10T16:51:49.923Z,98151.88
2019-05-10T16:54:24.370Z,98156.14
2019-05-10T16:56:59.922Z,98153.67
2019-05-10T16:59:16.715Z,98144.02
2019-05-10T17:01:50.203Z,98148.15
2019-05-10T17:04:32.176Z,98149.53
2019-05-10T17:07:18.734Z,98148.42
2019-05-10T17:09:29.137Z,98152.00
2019-05-10T17:12:21.951Z,98148.97
2019-05-10T17:15:24.625Z,98150.03
2019-05-10T17:18:17.767Z,98144.95
2019-05-10T17:20:34.672Z,98149.82
2019-05-10T17:23:18.173Z,98160.08
2019-05-10T17:25:47.673Z,98158.97
2019-05-10T17:28:17.975Z,98151.63
2019-05-10T17:30:59.757Z,98154.68
2019-05-10T17:33:36.916Z,98161.02
2019-05-10T17:36:08.937Z,98169.85
2019-05-10T17:38:32.060Z,98167.70
2019-05-10T17:41:11.086Z,98165.00
2019-05-10T17:54:11.368Z,98152.80
2019-05-10T17:57:29.267Z,98154.30
2019-05-10T18:18:35.364Z,98154.58
2019-05-10T18:21:24.065Z,98158.44
2019-05-10T18:23:52.618Z,98155.73
2019-05-10T18:26:46.411Z,98155.52
2019-05-10T18:36:05.028Z,98181.13
2019-05-10T18:38:40.983Z,98164.23
2019-05-10T18:41:21.825Z,98172.23
2019-05-10T18:43:42.832Z,98168.19
2019-05-10T18:49:44.926Z,98172.25
2019-05-10T18:52:06.528Z,98167.89
2019-05-10T18:54:26.819Z,98167.12
2019-05-10T18:56:57.524Z,98164.95
2019-05-10T18:59:20.662Z,98174.05
2019-05-10T19:01:51.734Z,98174.13
2019-05-10T19:04:14.172Z,98178.02
2019-05-10T19:06:34.167Z,98177.23
2019-05-10T19:08:52.818Z,98184.71
2019-05-10T19:11:38.783Z,98184.48
2019-05-10T19:14:07.814Z,98185.10
2019-05-10T19:16:47.245Z,98187.03
2019-05-10T19:20:01.821Z,98192.66
2019-05-10T19:22:08.761Z,98195.02
2019-05-10T19:24:57.687Z,98185.27
2019-05-10T20:02:38.954Z,98187.48
2019-05-10T20:15:03.106Z,98204.73
2019-05-10T20:18:14.547Z,98202.37
2019-05-10T20:46:02.135Z,98197.14
2019-05-10T20:51:38.138Z,98193.12
2019-05-10T20:54:27.149Z,98201.95
2019-05-10T20:56:59.820Z,98205.25
2019-05-10T20:59:59.967Z,98204.72
2019-05-10T21:02:32.093Z,98208.56
2019-05-10T21:08:22.288Z,98207.53
2019-05-10T21:11:16.184Z,98208.70
2019-05-10T21:16:18.704Z,98213.38
2019-05-10T21:18:42.602Z,98210.63
2019-05-10T21:21:02.032Z,98212.83
2019-05-10T21:23:40.160Z,98214.98
2019-05-10T21:26:28.351Z,98217.42
2019-05-10T21:29:17.769Z,98224.81
2019-05-10T21:31:52.122Z,98219.30
2019-05-10T21:34:09.935Z,98226.93
2019-05-10T21:36:17.724Z,98236.22
2019-05-10T21:39:12.464Z,98230.70
2019-05-10T21:41:33.466Z,98235.62
2019-05-10T21:44:20.371Z,98228.83
2019-05-10T22:03:17.357Z,98244.95
2019-05-10T22:06:05.612Z,98250.99
2019-05-10T22:08:48.423Z,98234.56
2019-05-10T22:11:18.105Z,98240.57
2019-05-10T22:13:57.588Z,98240.57
2019-05-10T22:17:39.480Z,98241.69
2019-05-10T22:28:52.830Z,98231.78
2019-05-10T22:34:24.679Z,98217.56
2019-05-10T22:36:58.695Z,98220.30
2019-05-10T22:47:32.146Z,98219.22
2019-05-10T22:53:16.910Z,98202.78
2019-05-10T22:56:45.564Z,98197.85
2019-05-10T23:02:32.939Z,98191.88
2019-05-10T23:05:14.766Z,98188.05
2019-05-10T23:07:36.665Z,98193.83
2019-05-10T23:10:12.365Z,98182.08
2019-05-10T23:13:14.381Z,98180.44
2019-05-10T23:19:18.250Z,98159.66
2019-05-10T23:25:34.599Z,98163.77
2019-05-10T23:45:13.152Z,98124.09
